sensor_id;sensor_type;location;lat;lon;timestamp;P1;durP1;ratioP1;P2;durP2;ratioP2
7523;SDS011;3803;51.666;7.630;2023-01-01T00:00:00;33.40;;;20.73;;
7523;SDS011;3803;51.666;7.630;2023-01-01T00:00:21;31.57;;;20.10;;
7523;SDS011;3803;51.666;7.630;2023-01-01T00:00:41;31.55;;;19.95;;
7523;SDS011;3803;51.666;7.630;2023-01-01T00:01:09;30.97;;;19.33;;
7523;SDS011;3803;51.666;7.630;2023-01-01T00:01:31;27.23;;;17.27;;
7523;SDS011;3803;51.666;7.630;2023-01-01T00:01:52;24.35;;;16.13;;
7523;SDS011;3803;51.666;7.630;2023-01-01T00:02:12;25.02;;;15.32;;
7523;SDS011;3803;51.666;7.630;2023-01-01T00:02:33;27.80;;;16.23;;
7523;SDS011;3803;51.666;7.630;2023-01-01T00:02:53;30.10;;;17.70;;
7523;SDS011;3803;51.666;7.630;2023-01-01T00:03:15;29.00;;;19.60;;
7523;SDS011;3803;51.666;7.630;2023-01-01T00:03:36;28.93;;;18.70;;
7523;SDS011;3803;51.666;7.630;2023-01-01T00:03:57;23.23;;;15.70;;
7523;SDS011;3803;51.666;7.630;2023-01-01T00:04:19;23.10;;;14.85;;
7523;SDS011;3803;51.666;7.630;2023-01-01T00:04:40;21.40;;;14.57;;
7523;SDS011;3803;51.666;7.630;2023-01-01T00:05:01;22.83;;;14.48;;
7523;SDS011;3803;51.666;7.630;2023-01-01T00:05:22;22.30;;;14.30;;
7523;SDS011;3803;51.666;7.630;2023-01-01T00:05:43;22.20;;;14.30;;
7523;SDS011;3803;51.666;7.630;2023-01-01T00:06:07;23.67;;;14.30;;
7523;SDS011;3803;51.666;7.630;2023-01-01T00:06:29;23.23;;;13.48;;
7523;SDS011;3803;51.666;7.630;2023-01-01T00:06:50;25.63;;;13.07;;
7523;SDS011;3803;51.666;7.630;2023-01-01T00:07:10;24.53;;;12.67;;
7523;SDS011;3803;51.666;7.630;2023-01-01T00:07:31;23.42;;;12.50;;
7523;SDS011;3803;51.666;7.630;2023-01-01T00:07:52;21.92;;;12.05;;
7523;SDS011;3803;51.666;7.630;2023-01-01T00:08:12;18.60;;;11.27;;
7523;SDS011;3803;51.666;7.630;2023-01-01T00:08:34;19.17;;;11.00;;
7523;SDS011;3803;51.666;7.630;2023-01-01T00:08:55;18.58;;;11.00;;
7523;SDS011;3803;51.666;7.630;2023-01-01T00:09:34;22.35;;;11.60;;
7523;SDS011;3803;51.666;7.630;2023-01-01T00:10:13;22.70;;;11.77;;
7523;SDS011;3803;51.666;7.630;2023-01-01T00:10:49;22.55;;;12.30;;
7523;SDS011;3803;51.666;7.630;2023-01-01T00:11:10;19.63;;;11.65;;
7523;SDS011;3803;51.666;7.630;2023-01-01T00:11:30;18.38;;;11.13;;
7523;SDS011;3803;51.666;7.630;2023-01-01T00:11:51;16.97;;;10.80;;
7523;SDS011;3803;51.666;7.630;2023-01-01T00:12:12;17.25;;;10.77;;
7523;SDS011;3803;51.666;7.630;2023-01-01T00:12:32;18.40;;;11.03;;
7523;SDS011;3803;51.666;7.630;2023-01-01T00:12:54;15.95;;;10.50;;
7523;SDS011;3803;51.666;7.630;2023-01-01T00:13:18;16.33;;;10.63;;
7523;SDS011;3803;51.666;7.630;2023-01-01T00:13:39;16.92;;;10.70;;
7523;SDS011;3803;51.666;7.630;2023-01-01T00:14:00;17.10;;;10.70;;
7523;SDS011;3803;51.666;7.630;2023-01-01T00:14:21;16.60;;;10.97;;
7523;SDS011;3803;51.666;7.630;2023-01-01T00:14:42;15.40;;;10.80;;
7523;SDS011;3803;51.666;7.630;2023-01-01T00:15:03;18.45;;;10.73;;
7523;SDS011;3803;51.666;7.630;2023-01-01T00:15:25;18.23;;;10.18;;
7523;SDS011;3803;51.666;7.630;2023-01-01T00:15:48;18.17;;;9.90;;
7523;SDS011;3803;51.666;7.630;2023-01-01T00:16:09;15.90;;;9.88;;
7523;SDS011;3803;51.666;7.630;2023-01-01T00:16:33;15.02;;;10.02;;
7523;SDS011;3803;51.666;7.630;2023-01-01T00:16:54;13.97;;;10.00;;
7523;SDS011;3803;51.666;7.630;2023-01-01T00:17:15;13.88;;;10.15;;
7523;SDS011;3803;51.666;7.630;2023-01-01T00:17:35;14.17;;;10.23;;
7523;SDS011;3803;51.666;7.630;2023-01-01T00:17:56;15.18;;;10.10;;
7523;SDS011;3803;51.666;7.630;2023-01-01T00:18:17;17.13;;;10.30;;
7523;SDS011;3803;51.666;7.630;2023-01-01T00:18:37;18.60;;;10.38;;
7523;SDS011;3803;51.666;7.630;2023-01-01T00:18:59;18.83;;;10.07;;
7523;SDS011;3803;51.666;7.630;2023-01-01T00:19:20;18.80;;;9.95;;
7523;SDS011;3803;51.666;7.630;2023-01-01T00:19:41;16.83;;;10.20;;
7523;SDS011;3803;51.666;7.630;2023-01-01T00:20:02;16.23;;;10.37;;
7523;SDS011;3803;51.666;7.630;2023-01-01T00:20:23;17.45;;;10.00;;
7523;SDS011;3803;51.666;7.630;2023-01-01T00:20:44;19.42;;;10.52;;
7523;SDS011;3803;51.666;7.630;2023-01-01T00:21:05;19.83;;;11.07;;
7523;SDS011;3803;51.666;7.630;2023-01-01T00:21:34;18.73;;;11.00;;
7523;SDS011;3803;51.666;7.630;2023-01-01T00:21:55;19.67;;;10.73;;
7523;SDS011;3803;51.666;7.630;2023-01-01T00:22:16;18.90;;;10.60;;
7523;SDS011;3803;51.666;7.630;2023-01-01T00:22:37;18.25;;;10.30;;
7523;SDS011;3803;51.666;7.630;2023-01-01T00:22:57;18.00;;;9.80;;
7523;SDS011;3803;51.666;7.630;2023-01-01T00:23:18;17.90;;;9.50;;
7523;SDS011;3803;51.666;7.630;2023-01-01T00:23:39;17.10;;;9.48;;
7523;SDS011;3803;51.666;7.630;2023-01-01T00:24:00;16.00;;;9.70;;
7523;SDS011;3803;51.666;7.630;2023-01-01T00:24:22;13.65;;;9.20;;
7523;SDS011;3803;51.666;7.630;2023-01-01T00:24:42;16.40;;;9.50;;
7523;SDS011;3803;51.666;7.630;2023-01-01T00:25:03;16.92;;;9.52;;
7523;SDS011;3803;51.666;7.630;2023-01-01T00:25:25;16.48;;;9.73;;
7523;SDS011;3803;51.666;7.630;2023-01-01T00:25:46;13.52;;;9.45;;
7523;SDS011;3803;51.666;7.630;2023-01-01T00:26:10;13.15;;;9.48;;
7523;SDS011;3803;51.666;7.630;2023-01-01T00:26:32;14.70;;;9.90;;
7523;SDS011;3803;51.666;7.630;2023-01-01T00:26:53;20.50;;;10.50;;
7523;SDS011;3803;51.666;7.630;2023-01-01T00:27:13;21.40;;;10.50;;
7523;SDS011;3803;51.666;7.630;2023-01-01T00:27:34;20.83;;;10.07;;
7523;SDS011;3803;51.666;7.630;2023-01-01T00:27:56;16.75;;;9.20;;
7523;SDS011;3803;51.666;7.630;2023-01-01T00:28:17;16.10;;;9.07;;
7523;SDS011;3803;51.666;7.630;2023-01-01T00:28:38;16.13;;;9.45;;
7523;SDS011;3803;51.666;7.630;2023-01-01T00:28:59;15.30;;;9.30;;
7523;SDS011;3803;51.666;7.630;2023-01-01T00:29:20;14.50;;;9.23;;
7523;SDS011;3803;51.666;7.630;2023-01-01T00:29:42;14.18;;;9.40;;
7523;SDS011;3803;51.666;7.630;2023-01-01T00:30:03;14.90;;;10.00;;
7523;SDS011;3803;51.666;7.630;2023-01-01T00:30:24;15.45;;;9.93;;
7523;SDS011;3803;51.666;7.630;2023-01-01T00:30:45;13.50;;;9.73;;
7523;SDS011;3803;51.666;7.630;2023-01-01T00:31:09;13.23;;;9.35;;
7523;SDS011;3803;51.666;7.630;2023-01-01T00:31:36;15.88;;;9.02;;
7523;SDS011;3803;51.666;7.630;2023-01-01T00:31:57;17.05;;;9.15;;
7523;SDS011;3803;51.666;7.630;2023-01-01T00:32:17;15.70;;;9.33;;
7523;SDS011;3803;51.666;7.630;2023-01-01T00:32:38;16.23;;;9.35;;
7523;SDS011;3803;51.666;7.630;2023-01-01T00:32:59;16.40;;;9.20;;
7523;SDS011;3803;51.666;7.630;2023-01-01T00:33:19;14.95;;;8.80;;
7523;SDS011;3803;51.666;7.630;2023-01-01T00:33:40;16.57;;;9.30;;
7523;SDS011;3803;51.666;7.630;2023-01-01T00:34:00;16.05;;;10.00;;
7523;SDS011;3803;51.666;7.630;2023-01-01T00:34:21;16.02;;;10.18;;
7523;SDS011;3803;51.666;7.630;2023-01-01T00:34:42;15.13;;;9.80;;
7523;SDS011;3803;51.666;7.630;2023-01-01T00:35:02;14.32;;;9.15;;
7523;SDS011;3803;51.666;7.630;2023-01-01T00:35:24;14.48;;;9.10;;
7523;SDS011;3803;51.666;7.630;2023-01-01T00:35:44;15.50;;;9.20;;
7523;SDS011;3803;51.666;7.630;2023-01-01T00:36:06;17.05;;;9.15;;
7523;SDS011;3803;51.666;7.630;2023-01-01T00:36:27;16.65;;;9.30;;
7523;SDS011;3803;51.666;7.630;2023-01-01T00:36:49;15.48;;;9.38;;
7523;SDS011;3803;51.666;7.630;2023-01-01T00:37:09;15.00;;;9.80;;
7523;SDS011;3803;51.666;7.630;2023-01-01T00:37:31;16.20;;;10.30;;
7523;SDS011;3803;51.666;7.630;2023-01-01T00:37:52;15.13;;;9.90;;
7523;SDS011;3803;51.666;7.630;2023-01-01T00:38:13;15.40;;;9.50;;
7523;SDS011;3803;51.666;7.630;2023-01-01T00:38:34;16.77;;;9.05;;
7523;SDS011;3803;51.666;7.630;2023-01-01T00:38:55;17.75;;;9.20;;
7523;SDS011;3803;51.666;7.630;2023-01-01T00:39:16;17.83;;;9.60;;
7523;SDS011;3803;51.666;7.630;2023-01-01T00:39:36;16.25;;;9.50;;
7523;SDS011;3803;51.666;7.630;2023-01-01T00:39:57;17.40;;;9.20;;
7523;SDS011;3803;51.666;7.630;2023-01-01T00:40:18;17.77;;;8.98;;
7523;SDS011;3803;51.666;7.630;2023-01-01T00:40:39;18.40;;;9.13;;
7523;SDS011;3803;51.666;7.630;2023-01-01T00:40:59;16.42;;;9.60;;
7523;SDS011;3803;51.666;7.630;2023-01-01T00:41:20;16.83;;;9.40;;
7523;SDS011;3803;51.666;7.630;2023-01-01T00:41:41;15.75;;;9.23;;
7523;SDS011;3803;51.666;7.630;2023-01-01T00:42:02;19.10;;;9.20;;
7523;SDS011;3803;51.666;7.630;2023-01-01T00:42:22;19.27;;;9.05;;
7523;SDS011;3803;51.666;7.630;2023-01-01T00:42:43;17.80;;;9.27;;
7523;SDS011;3803;51.666;7.630;2023-01-01T00:43:03;17.70;;;9.20;;
7523;SDS011;3803;51.666;7.630;2023-01-01T00:43:24;19.03;;;9.77;;
7523;SDS011;3803;51.666;7.630;2023-01-01T00:43:45;19.40;;;9.35;;
7523;SDS011;3803;51.666;7.630;2023-01-01T00:44:05;17.08;;;9.80;;
7523;SDS011;3803;51.666;7.630;2023-01-01T00:44:26;17.33;;;10.00;;
7523;SDS011;3803;51.666;7.630;2023-01-01T00:44:47;19.63;;;10.23;;
7523;SDS011;3803;51.666;7.630;2023-01-01T00:45:07;22.05;;;10.00;;
7523;SDS011;3803;51.666;7.630;2023-01-01T00:45:28;21.17;;;9.68;;
7523;SDS011;3803;51.666;7.630;2023-01-01T00:45:49;18.23;;;9.50;;
7523;SDS011;3803;51.666;7.630;2023-01-01T00:46:12;17.02;;;9.40;;
7523;SDS011;3803;51.666;7.630;2023-01-01T00:46:34;19.58;;;9.70;;
7523;SDS011;3803;51.666;7.630;2023-01-01T00:46:55;19.92;;;10.00;;
7523;SDS011;3803;51.666;7.630;2023-01-01T00:47:16;18.67;;;9.77;;
7523;SDS011;3803;51.666;7.630;2023-01-01T00:47:36;18.25;;;10.02;;
7523;SDS011;3803;51.666;7.630;2023-01-01T00:47:57;19.35;;;9.70;;
7523;SDS011;3803;51.666;7.630;2023-01-01T00:48:17;17.60;;;9.93;;
7523;SDS011;3803;51.666;7.630;2023-01-01T00:48:39;18.17;;;9.82;;
7523;SDS011;3803;51.666;7.630;2023-01-01T00:48:59;16.52;;;10.00;;
7523;SDS011;3803;51.666;7.630;2023-01-01T00:49:20;15.93;;;9.90;;
7523;SDS011;3803;51.666;7.630;2023-01-01T00:49:41;16.80;;;10.10;;
7523;SDS011;3803;51.666;7.630;2023-01-01T00:50:02;16.98;;;9.75;;
7523;SDS011;3803;51.666;7.630;2023-01-01T00:50:23;17.08;;;9.88;;
7523;SDS011;3803;51.666;7.630;2023-01-01T00:50:43;14.77;;;9.37;;
7523;SDS011;3803;51.666;7.630;2023-01-01T00:51:04;13.25;;;9.45;;
7523;SDS011;3803;51.666;7.630;2023-01-01T00:51:25;13.82;;;9.55;;
7523;SDS011;3803;51.666;7.630;2023-01-01T00:51:46;16.27;;;9.65;;
7523;SDS011;3803;51.666;7.630;2023-01-01T00:52:06;16.83;;;9.50;;
7523;SDS011;3803;51.666;7.630;2023-01-01T00:52:27;16.60;;;9.70;;
7523;SDS011;3803;51.666;7.630;2023-01-01T00:52:48;15.15;;;9.48;;
7523;SDS011;3803;51.666;7.630;2023-01-01T00:53:09;14.65;;;9.30;;
7523;SDS011;3803;51.666;7.630;2023-01-01T00:53:30;16.30;;;9.30;;
7523;SDS011;3803;51.666;7.630;2023-01-01T00:53:50;14.67;;;9.30;;
7523;SDS011;3803;51.666;7.630;2023-01-01T00:54:11;14.48;;;9.40;;
7523;SDS011;3803;51.666;7.630;2023-01-01T00:54:32;12.55;;;8.82;;
7523;SDS011;3803;51.666;7.630;2023-01-01T00:54:53;14.32;;;9.00;;
7523;SDS011;3803;51.666;7.630;2023-01-01T00:55:13;16.15;;;9.10;;
7523;SDS011;3803;51.666;7.630;2023-01-01T00:55:34;19.17;;;9.70;;
7523;SDS011;3803;51.666;7.630;2023-01-01T00:55:55;19.50;;;10.00;;
7523;SDS011;3803;51.666;7.630;2023-01-01T00:56:15;19.83;;;10.10;;
7523;SDS011;3803;51.666;7.630;2023-01-01T00:56:36;16.53;;;9.40;;
7523;SDS011;3803;51.666;7.630;2023-01-01T00:56:57;15.68;;;9.00;;
7523;SDS011;3803;51.666;7.630;2023-01-01T00:57:17;15.05;;;9.05;;
7523;SDS011;3803;51.666;7.630;2023-01-01T00:57:38;13.80;;;9.20;;
7523;SDS011;3803;51.666;7.630;2023-01-01T00:57:58;13.88;;;9.48;;
7523;SDS011;3803;51.666;7.630;2023-01-01T00:58:19;13.33;;;9.70;;
7523;SDS011;3803;51.666;7.630;2023-01-01T00:58:40;16.20;;;9.90;;
7523;SDS011;3803;51.666;7.630;2023-01-01T00:59:00;17.17;;;9.68;;
7523;SDS011;3803;51.666;7.630;2023-01-01T00:59:21;18.07;;;10.00;;
7523;SDS011;3803;51.666;7.630;2023-01-01T00:59:41;16.00;;;9.85;;
7523;SDS011;3803;51.666;7.630;2023-01-01T01:00:02;16.20;;;10.33;;
7523;SDS011;3803;51.666;7.630;2023-01-01T01:00:23;15.68;;;10.02;;
7523;SDS011;3803;51.666;7.630;2023-01-01T01:00:44;16.80;;;9.68;;
7523;SDS011;3803;51.666;7.630;2023-01-01T01:01:05;21.60;;;9.98;;
7523;SDS011;3803;51.666;7.630;2023-01-01T01:01:26;21.27;;;10.30;;
7523;SDS011;3803;51.666;7.630;2023-01-01T01:01:46;21.73;;;10.87;;
7523;SDS011;3803;51.666;7.630;2023-01-01T01:02:07;14.85;;;9.75;;
7523;SDS011;3803;51.666;7.630;2023-01-01T01:02:27;17.40;;;9.67;;
7523;SDS011;3803;51.666;7.630;2023-01-01T01:02:48;17.10;;;9.35;;
7523;SDS011;3803;51.666;7.630;2023-01-01T01:03:09;17.80;;;9.73;;
7523;SDS011;3803;51.666;7.630;2023-01-01T01:03:47;14.95;;;9.85;;
7523;SDS011;3803;51.666;7.630;2023-01-01T01:04:07;15.95;;;10.00;;
7523;SDS011;3803;51.666;7.630;2023-01-01T01:04:28;16.60;;;10.32;;
7523;SDS011;3803;51.666;7.630;2023-01-01T01:04:49;15.65;;;9.80;;
7523;SDS011;3803;51.666;7.630;2023-01-01T01:05:10;16.80;;;10.00;;
7523;SDS011;3803;51.666;7.630;2023-01-01T01:05:31;16.92;;;9.98;;
7523;SDS011;3803;51.666;7.630;2023-01-01T01:06:22;17.98;;;10.45;;
7523;SDS011;3803;51.666;7.630;2023-01-01T01:06:43;18.70;;;10.52;;
7523;SDS011;3803;51.666;7.630;2023-01-01T01:07:04;19.27;;;10.30;;
7523;SDS011;3803;51.666;7.630;2023-01-01T01:07:25;20.35;;;10.20;;
7523;SDS011;3803;51.666;7.630;2023-01-01T01:07:46;19.17;;;10.10;;
7523;SDS011;3803;51.666;7.630;2023-01-01T01:08:06;18.17;;;10.15;;
7523;SDS011;3803;51.666;7.630;2023-01-01T01:08:28;18.20;;;9.93;;
7523;SDS011;3803;51.666;7.630;2023-01-01T01:08:50;20.50;;;10.30;;
7523;SDS011;3803;51.666;7.630;2023-01-01T01:09:11;18.60;;;10.30;;
7523;SDS011;3803;51.666;7.630;2023-01-01T01:09:31;18.30;;;10.43;;
7523;SDS011;3803;51.666;7.630;2023-01-01T01:09:52;15.90;;;10.57;;
7523;SDS011;3803;51.666;7.630;2023-01-01T01:10:13;15.73;;;10.35;;
7523;SDS011;3803;51.666;7.630;2023-01-01T01:10:34;14.57;;;10.10;;
7523;SDS011;3803;51.666;7.630;2023-01-01T01:10:54;18.02;;;10.50;;
7523;SDS011;3803;51.666;7.630;2023-01-01T01:11:16;18.80;;;10.70;;
7523;SDS011;3803;51.666;7.630;2023-01-01T01:11:39;19.50;;;10.40;;
7523;SDS011;3803;51.666;7.630;2023-01-01T01:11:59;17.10;;;9.93;;
7523;SDS011;3803;51.666;7.630;2023-01-01T01:12:20;19.03;;;10.00;;
7523;SDS011;3803;51.666;7.630;2023-01-01T01:12:41;18.50;;;10.18;;
7523;SDS011;3803;51.666;7.630;2023-01-01T01:13:01;17.27;;;10.25;;
7523;SDS011;3803;51.666;7.630;2023-01-01T01:13:22;15.07;;;10.48;;
7523;SDS011;3803;51.666;7.630;2023-01-01T01:13:44;14.17;;;10.43;;
7523;SDS011;3803;51.666;7.630;2023-01-01T01:14:05;14.00;;;10.10;;
7523;SDS011;3803;51.666;7.630;2023-01-01T01:14:26;13.70;;;9.90;;
7523;SDS011;3803;51.666;7.630;2023-01-01T01:14:47;15.10;;;10.23;;
7523;SDS011;3803;51.666;7.630;2023-01-01T01:15:08;14.33;;;10.10;;
7523;SDS011;3803;51.666;7.630;2023-01-01T01:15:29;14.93;;;10.38;;
7523;SDS011;3803;51.666;7.630;2023-01-01T01:15:49;13.60;;;10.18;;
7523;SDS011;3803;51.666;7.630;2023-01-01T01:16:11;14.35;;;10.10;;
7523;SDS011;3803;51.666;7.630;2023-01-01T01:16:34;17.42;;;10.18;;
7523;SDS011;3803;51.666;7.630;2023-01-01T01:16:55;16.73;;;10.10;;
7523;SDS011;3803;51.666;7.630;2023-01-01T01:17:15;18.37;;;10.87;;
7523;SDS011;3803;51.666;7.630;2023-01-01T01:17:36;16.98;;;10.75;;
7523;SDS011;3803;51.666;7.630;2023-01-01T01:17:57;17.23;;;10.50;;
7523;SDS011;3803;51.666;7.630;2023-01-01T01:18:18;18.05;;;10.52;;
7523;SDS011;3803;51.666;7.630;2023-01-01T01:18:39;15.90;;;10.40;;
7523;SDS011;3803;51.666;7.630;2023-01-01T01:19:00;16.23;;;10.20;;
7523;SDS011;3803;51.666;7.630;2023-01-01T01:19:23;15.55;;;10.00;;
7523;SDS011;3803;51.666;7.630;2023-01-01T01:19:45;19.27;;;10.63;;
7523;SDS011;3803;51.666;7.630;2023-01-01T01:20:06;20.30;;;10.60;;
7523;SDS011;3803;51.666;7.630;2023-01-01T01:20:27;20.92;;;10.63;;
7523;SDS011;3803;51.666;7.630;2023-01-01T01:20:48;21.37;;;10.60;;
7523;SDS011;3803;51.666;7.630;2023-01-01T01:21:14;20.65;;;10.82;;
7523;SDS011;3803;51.666;7.630;2023-01-01T01:21:36;20.13;;;10.85;;
7523;SDS011;3803;51.666;7.630;2023-01-01T01:21:57;17.67;;;10.90;;
7523;SDS011;3803;51.666;7.630;2023-01-01T01:22:17;18.07;;;11.07;;
7523;SDS011;3803;51.666;7.630;2023-01-01T01:22:38;18.70;;;10.60;;
7523;SDS011;3803;51.666;7.630;2023-01-01T01:23:00;18.77;;;10.20;;
7523;SDS011;3803;51.666;7.630;2023-01-01T01:23:20;16.80;;;9.87;;
7523;SDS011;3803;51.666;7.630;2023-01-01T01:23:41;16.38;;;10.00;;
7523;SDS011;3803;51.666;7.630;2023-01-01T01:24:02;16.98;;;10.02;;
7523;SDS011;3803;51.666;7.630;2023-01-01T01:24:23;16.83;;;10.00;;
7523;SDS011;3803;51.666;7.630;2023-01-01T01:24:44;17.05;;;9.70;;
7523;SDS011;3803;51.666;7.630;2023-01-01T01:25:05;16.90;;;9.85;;
7523;SDS011;3803;51.666;7.630;2023-01-01T01:25:26;17.63;;;10.18;;
7523;SDS011;3803;51.666;7.630;2023-01-01T01:25:47;16.58;;;10.32;;
7523;SDS011;3803;51.666;7.630;2023-01-01T01:26:12;17.00;;;10.27;;
7523;SDS011;3803;51.666;7.630;2023-01-01T01:26:34;19.88;;;9.95;;
7523;SDS011;3803;51.666;7.630;2023-01-01T01:26:55;18.92;;;9.70;;
7523;SDS011;3803;51.666;7.630;2023-01-01T01:27:17;15.95;;;9.85;;
7523;SDS011;3803;51.666;7.630;2023-01-01T01:27:38;16.97;;;10.13;;
7523;SDS011;3803;51.666;7.630;2023-01-01T01:27:58;16.30;;;9.87;;
7523;SDS011;3803;51.666;7.630;2023-01-01T01:28:19;18.40;;;9.77;;
7523;SDS011;3803;51.666;7.630;2023-01-01T01:28:40;16.88;;;9.60;;
7523;SDS011;3803;51.666;7.630;2023-01-01T01:29:02;17.60;;;10.00;;
7523;SDS011;3803;51.666;7.630;2023-01-01T01:29:23;16.13;;;10.10;;
7523;SDS011;3803;51.666;7.630;2023-01-01T01:29:44;17.07;;;10.00;;
7523;SDS011;3803;51.666;7.630;2023-01-01T01:30:04;15.48;;;9.60;;
7523;SDS011;3803;51.666;7.630;2023-01-01T01:30:26;14.93;;;9.80;;
7523;SDS011;3803;51.666;7.630;2023-01-01T01:30:46;14.98;;;10.05;;
7523;SDS011;3803;51.666;7.630;2023-01-01T01:31:07;14.85;;;10.18;;
7523;SDS011;3803;51.666;7.630;2023-01-01T01:31:29;18.27;;;9.90;;
7523;SDS011;3803;51.666;7.630;2023-01-01T01:31:52;20.35;;;9.90;;
7523;SDS011;3803;51.666;7.630;2023-01-01T01:32:12;20.98;;;9.88;;
7523;SDS011;3803;51.666;7.630;2023-01-01T01:32:33;21.23;;;10.13;;
7523;SDS011;3803;51.666;7.630;2023-01-01T01:32:53;19.10;;;10.10;;
7523;SDS011;3803;51.666;7.630;2023-01-01T01:33:14;19.42;;;10.30;;
7523;SDS011;3803;51.666;7.630;2023-01-01T01:33:43;17.75;;;10.27;;
7523;SDS011;3803;51.666;7.630;2023-01-01T01:34:04;18.98;;;10.40;;
7523;SDS011;3803;51.666;7.630;2023-01-01T01:34:25;17.45;;;9.77;;
7523;SDS011;3803;51.666;7.630;2023-01-01T01:34:46;19.55;;;9.93;;
7523;SDS011;3803;51.666;7.630;2023-01-01T01:35:07;17.93;;;9.50;;
7523;SDS011;3803;51.666;7.630;2023-01-01T01:35:27;18.53;;;9.83;;
7523;SDS011;3803;51.666;7.630;2023-01-01T01:35:49;20.75;;;10.00;;
7523;SDS011;3803;51.666;7.630;2023-01-01T01:36:11;19.75;;;10.10;;
7523;SDS011;3803;51.666;7.630;2023-01-01T01:36:33;17.08;;;9.50;;
7523;SDS011;3803;51.666;7.630;2023-01-01T01:36:54;15.40;;;9.38;;
7523;SDS011;3803;51.666;7.630;2023-01-01T01:37:15;13.32;;;9.00;;
7523;SDS011;3803;51.666;7.630;2023-01-01T01:37:35;13.65;;;9.20;;
7523;SDS011;3803;51.666;7.630;2023-01-01T01:37:56;15.37;;;9.27;;
7523;SDS011;3803;51.666;7.630;2023-01-01T01:38:17;16.95;;;9.23;;
7523;SDS011;3803;51.666;7.630;2023-01-01T01:38:38;16.83;;;8.90;;
7523;SDS011;3803;51.666;7.630;2023-01-01T01:38:59;13.75;;;8.35;;
7523;SDS011;3803;51.666;7.630;2023-01-01T01:39:20;14.27;;;8.60;;
7523;SDS011;3803;51.666;7.630;2023-01-01T01:39:41;14.27;;;8.80;;
7523;SDS011;3803;51.666;7.630;2023-01-01T01:40:02;17.00;;;9.27;;
7523;SDS011;3803;51.666;7.630;2023-01-01T01:40:22;15.80;;;8.85;;
7523;SDS011;3803;51.666;7.630;2023-01-01T01:40:43;17.00;;;8.95;;
7523;SDS011;3803;51.666;7.630;2023-01-01T01:41:04;14.87;;;8.57;;
7523;SDS011;3803;51.666;7.630;2023-01-01T01:41:25;15.10;;;8.98;;
7523;SDS011;3803;51.666;7.630;2023-01-01T01:41:47;15.45;;;8.80;;
7523;SDS011;3803;51.666;7.630;2023-01-01T01:42:10;14.25;;;8.50;;
7523;SDS011;3803;51.666;7.630;2023-01-01T01:42:36;13.68;;;8.50;;
7523;SDS011;3803;51.666;7.630;2023-01-01T01:42:57;16.33;;;9.07;;
7523;SDS011;3803;51.666;7.630;2023-01-01T01:43:22;16.08;;;8.77;;
7523;SDS011;3803;51.666;7.630;2023-01-01T01:43:53;12.63;;;8.35;;
7523;SDS011;3803;51.666;7.630;2023-01-01T01:45:10;14.23;;;8.50;;
7523;SDS011;3803;51.666;7.630;2023-01-01T01:45:31;14.63;;;8.50;;
7523;SDS011;3803;51.666;7.630;2023-01-01T01:45:53;14.57;;;8.57;;
7523;SDS011;3803;51.666;7.630;2023-01-01T01:46:25;15.00;;;8.45;;
7523;SDS011;3803;51.666;7.630;2023-01-01T01:46:48;13.77;;;8.35;;
7523;SDS011;3803;51.666;7.630;2023-01-01T01:47:13;13.68;;;7.75;;
7523;SDS011;3803;51.666;7.630;2023-01-01T01:47:47;16.08;;;8.00;;
7523;SDS011;3803;51.666;7.630;2023-01-01T01:48:08;14.52;;;8.30;;
7523;SDS011;3803;51.666;7.630;2023-01-01T01:48:30;15.27;;;8.65;;
7523;SDS011;3803;51.666;7.630;2023-01-01T01:48:59;16.52;;;9.10;;
7523;SDS011;3803;51.666;7.630;2023-01-01T01:49:27;17.23;;;9.07;;
7523;SDS011;3803;51.666;7.630;2023-01-01T01:50:34;15.18;;;8.60;;
7523;SDS011;3803;51.666;7.630;2023-01-01T01:50:56;12.52;;;8.20;;
7523;SDS011;3803;51.666;7.630;2023-01-01T01:51:19;17.17;;;7.97;;
7523;SDS011;3803;51.666;7.630;2023-01-01T01:51:45;16.80;;;7.95;;
7523;SDS011;3803;51.666;7.630;2023-01-01T01:52:06;16.27;;;7.93;;
7523;SDS011;3803;51.666;7.630;2023-01-01T01:52:27;13.37;;;8.37;;
7523;SDS011;3803;51.666;7.630;2023-01-01T01:52:54;14.38;;;7.65;;
7523;SDS011;3803;51.666;7.630;2023-01-01T01:53:21;13.38;;;7.38;;
7523;SDS011;3803;51.666;7.630;2023-01-01T01:53:45;10.05;;;7.30;;
7523;SDS011;3803;51.666;7.630;2023-01-01T01:54:09;10.85;;;7.50;;
7523;SDS011;3803;51.666;7.630;2023-01-01T01:54:36;11.43;;;7.63;;
7523;SDS011;3803;51.666;7.630;2023-01-01T01:54:57;10.77;;;7.40;;
7523;SDS011;3803;51.666;7.630;2023-01-01T01:55:21;12.23;;;7.55;;
7523;SDS011;3803;51.666;7.630;2023-01-01T01:55:49;12.88;;;7.20;;
7523;SDS011;3803;51.666;7.630;2023-01-01T01:56:13;11.30;;;6.57;;
7523;SDS011;3803;51.666;7.630;2023-01-01T01:56:59;10.27;;;6.40;;
7523;SDS011;3803;51.666;7.630;2023-01-01T01:57:23;10.73;;;6.90;;
7523;SDS011;3803;51.666;7.630;2023-01-01T01:57:43;12.15;;;7.00;;
7523;SDS011;3803;51.666;7.630;2023-01-01T01:58:04;12.00;;;6.97;;
7523;SDS011;3803;51.666;7.630;2023-01-01T01:58:29;11.15;;;6.93;;
7523;SDS011;3803;51.666;7.630;2023-01-01T01:58:51;10.18;;;7.30;;
7523;SDS011;3803;51.666;7.630;2023-01-01T01:59:16;12.35;;;6.53;;
7523;SDS011;3803;51.666;7.630;2023-01-01T01:59:41;14.32;;;7.07;;
7523;SDS011;3803;51.666;7.630;2023-01-01T02:00:08;12.50;;;7.20;;
7523;SDS011;3803;51.666;7.630;2023-01-01T02:00:29;11.07;;;6.50;;
7523;SDS011;3803;51.666;7.630;2023-01-01T02:00:50;13.10;;;6.13;;
7523;SDS011;3803;51.666;7.630;2023-01-01T02:01:11;12.57;;;6.00;;
7523;SDS011;3803;51.666;7.630;2023-01-01T02:01:32;12.47;;;6.40;;
7523;SDS011;3803;51.666;7.630;2023-01-01T02:01:52;10.23;;;6.57;;
7523;SDS011;3803;51.666;7.630;2023-01-01T02:03:09;8.07;;;5.93;;
7523;SDS011;3803;51.666;7.630;2023-01-01T02:03:50;8.35;;;6.05;;
7523;SDS011;3803;51.666;7.630;2023-01-01T02:04:18;10.90;;;6.57;;
7523;SDS011;3803;51.666;7.630;2023-01-01T02:04:39;10.43;;;6.45;;
7523;SDS011;3803;51.666;7.630;2023-01-01T02:05:01;8.75;;;6.47;;
7523;SDS011;3803;51.666;7.630;2023-01-01T02:05:23;9.52;;;6.70;;
7523;SDS011;3803;51.666;7.630;2023-01-01T02:05:44;12.00;;;6.63;;
7523;SDS011;3803;51.666;7.630;2023-01-01T02:06:06;11.85;;;6.20;;
7523;SDS011;3803;51.666;7.630;2023-01-01T02:06:27;11.07;;;5.90;;
7523;SDS011;3803;51.666;7.630;2023-01-01T02:06:50;10.02;;;5.85;;
7523;SDS011;3803;51.666;7.630;2023-01-01T02:07:12;10.40;;;5.78;;
7523;SDS011;3803;51.666;7.630;2023-01-01T02:07:34;10.68;;;5.43;;
7523;SDS011;3803;51.666;7.630;2023-01-01T02:07:55;11.57;;;5.43;;
7523;SDS011;3803;51.666;7.630;2023-01-01T02:08:18;12.13;;;5.57;;
7523;SDS011;3803;51.666;7.630;2023-01-01T02:08:40;10.95;;;5.80;;
7523;SDS011;3803;51.666;7.630;2023-01-01T02:09:02;12.73;;;5.80;;
7523;SDS011;3803;51.666;7.630;2023-01-01T02:09:25;14.63;;;5.72;;
7523;SDS011;3803;51.666;7.630;2023-01-01T02:09:46;12.83;;;5.40;;
7523;SDS011;3803;51.666;7.630;2023-01-01T02:10:07;10.50;;;5.60;;
7523;SDS011;3803;51.666;7.630;2023-01-01T02:10:28;8.05;;;5.68;;
7523;SDS011;3803;51.666;7.630;2023-01-01T02:10:49;8.68;;;5.80;;
7523;SDS011;3803;51.666;7.630;2023-01-01T02:11:10;9.03;;;5.70;;
7523;SDS011;3803;51.666;7.630;2023-01-01T02:11:32;9.88;;;5.60;;
7523;SDS011;3803;51.666;7.630;2023-01-01T02:11:53;9.60;;;5.40;;
7523;SDS011;3803;51.666;7.630;2023-01-01T02:12:13;9.55;;;5.43;;
7523;SDS011;3803;51.666;7.630;2023-01-01T02:12:34;9.10;;;5.20;;
7523;SDS011;3803;51.666;7.630;2023-01-01T02:12:55;12.00;;;5.50;;
7523;SDS011;3803;51.666;7.630;2023-01-01T02:13:16;11.20;;;5.40;;
7523;SDS011;3803;51.666;7.630;2023-01-01T02:13:37;9.93;;;5.30;;
7523;SDS011;3803;51.666;7.630;2023-01-01T02:13:58;8.02;;;4.88;;
7523;SDS011;3803;51.666;7.630;2023-01-01T02:14:21;8.60;;;4.80;;
7523;SDS011;3803;51.666;7.630;2023-01-01T02:14:41;7.60;;;4.80;;
7523;SDS011;3803;51.666;7.630;2023-01-01T02:15:02;8.30;;;4.93;;
7523;SDS011;3803;51.666;7.630;2023-01-01T02:15:24;7.28;;;4.90;;
7523;SDS011;3803;51.666;7.630;2023-01-01T02:15:54;8.77;;;4.90;;